sensor_id;sensor_type;location;lat;lon;timestamp;temperature;humidity
32650;DHT22;19055;51.064;3.712;2022-10-16T00:00:30;15.70;99.40
32650;DHT22;19055;51.064;3.712;2022-10-16T00:02:56;15.70;99.50
32650;DHT22;19055;51.064;3.712;2022-10-16T00:05:22;15.70;99.60
32650;DHT22;19055;51.064;3.712;2022-10-16T00:07:47;15.70;99.80
32650;DHT22;19055;51.064;3.712;2022-10-16T00:10:13;15.60;99.90
32650;DHT22;19055;51.064;3.712;2022-10-16T00:12:39;15.60;99.90
32650;DHT22;19055;51.064;3.712;2022-10-16T00:15:04;15.60;99.90
32650;DHT22;19055;51.064;3.712;2022-10-16T00:17:31;15.50;99.90
32650;DHT22;19055;51.064;3.712;2022-10-16T00:19:56;15.40;99.90
32650;DHT22;19055;51.064;3.712;2022-10-16T00:22:22;15.40;99.90
32650;DHT22;19055;51.064;3.712;2022-10-16T00:24:48;15.40;99.90
32650;DHT22;19055;51.064;3.712;2022-10-16T00:27:13;15.30;99.90
32650;DHT22;19055;51.064;3.712;2022-10-16T00:29:39;15.20;99.90
32650;DHT22;19055;51.064;3.712;2022-10-16T00:32:05;15.20;99.90
32650;DHT22;19055;51.064;3.712;2022-10-16T00:34:33;15.20;99.90
32650;DHT22;19055;51.064;3.712;2022-10-16T00:36:59;15.10;99.90
32650;DHT22;19055;51.064;3.712;2022-10-16T00:39:24;15.10;99.90
32650;DHT22;19055;51.064;3.712;2022-10-16T00:41:50;15.10;99.90
32650;DHT22;19055;51.064;3.712;2022-10-16T00:47:00;15.00;99.90
32650;DHT22;19055;51.064;3.712;2022-10-16T00:49:26;15.00;99.90
32650;DHT22;19055;51.064;3.712;2022-10-16T00:51:52;15.00;99.90
32650;DHT22;19055;51.064;3.712;2022-10-16T00:54:26;15.00;99.90
32650;DHT22;19055;51.064;3.712;2022-10-16T00:56:53;15.00;99.90
32650;DHT22;19055;51.064;3.712;2022-10-16T00:59:20;15.00;99.90
32650;DHT22;19055;51.064;3.712;2022-10-16T01:01:46;15.00;99.90
32650;DHT22;19055;51.064;3.712;2022-10-16T01:04:11;15.00;99.90
32650;DHT22;19055;51.064;3.712;2022-10-16T01:14:37;15.00;99.90
32650;DHT22;19055;51.064;3.712;2022-10-16T01:17:12;15.00;99.90
32650;DHT22;19055;51.064;3.712;2022-10-16T01:19:44;15.00;99.90
32650;DHT22;19055;51.064;3.712;2022-10-16T01:22:15;15.10;99.90
32650;DHT22;19055;51.064;3.712;2022-10-16T01:24:46;15.00;99.90
32650;DHT22;19055;51.064;3.712;2022-10-16T01:29:40;14.90;99.90
32650;DHT22;19055;51.064;3.712;2022-10-16T01:32:15;14.90;99.90
32650;DHT22;19055;51.064;3.712;2022-10-16T01:34:47;15.00;99.90
32650;DHT22;19055;51.064;3.712;2022-10-16T01:37:15;14.80;99.90
32650;DHT22;19055;51.064;3.712;2022-10-16T01:39:42;14.90;99.90
32650;DHT22;19055;51.064;3.712;2022-10-16T01:42:15;14.80;99.90
32650;DHT22;19055;51.064;3.712;2022-10-16T01:44:41;14.80;99.90
32650;DHT22;19055;51.064;3.712;2022-10-16T01:47:09;14.80;99.90
32650;DHT22;19055;51.064;3.712;2022-10-16T01:49:36;14.90;99.90
32650;DHT22;19055;51.064;3.712;2022-10-16T01:52:05;14.90;99.90
32650;DHT22;19055;51.064;3.712;2022-10-16T01:54:31;14.90;99.90
32650;DHT22;19055;51.064;3.712;2022-10-16T01:56:58;15.00;99.90
32650;DHT22;19055;51.064;3.712;2022-10-16T01:59:25;15.00;99.90
32650;DHT22;19055;51.064;3.712;2022-10-16T02:01:52;14.90;99.90
32650;DHT22;19055;51.064;3.712;2022-10-16T02:04:22;14.90;99.90
32650;DHT22;19055;51.064;3.712;2022-10-16T02:06:49;14.90;99.90
32650;DHT22;19055;51.064;3.712;2022-10-16T02:09:15;14.90;99.90
32650;DHT22;19055;51.064;3.712;2022-10-16T02:11:42;14.90;99.90
32650;DHT22;19055;51.064;3.712;2022-10-16T02:14:08;14.90;99.90
32650;DHT22;19055;51.064;3.712;2022-10-16T02:16:37;14.90;99.90
32650;DHT22;19055;51.064;3.712;2022-10-16T02:19:03;14.90;99.90
32650;DHT22;19055;51.064;3.712;2022-10-16T02:21:30;14.90;99.90
32650;DHT22;19055;51.064;3.712;2022-10-16T02:23:58;14.90;99.90
32650;DHT22;19055;51.064;3.712;2022-10-16T02:26:29;14.80;99.90
32650;DHT22;19055;51.064;3.712;2022-10-16T02:28:59;14.80;99.90
32650;DHT22;19055;51.064;3.712;2022-10-16T02:31:27;14.80;99.90
32650;DHT22;19055;51.064;3.712;2022-10-16T02:33:53;14.80;99.90
32650;DHT22;19055;51.064;3.712;2022-10-16T02:36:20;14.80;99.90
32650;DHT22;19055;51.064;3.712;2022-10-16T02:38:46;14.70;99.90
32650;DHT22;19055;51.064;3.712;2022-10-16T02:41:12;14.70;99.90
32650;DHT22;19055;51.064;3.712;2022-10-16T02:43:38;14.80;99.90
32650;DHT22;19055;51.064;3.712;2022-10-16T02:46:03;14.80;99.90
32650;DHT22;19055;51.064;3.712;2022-10-16T02:48:29;14.80;99.90
32650;DHT22;19055;51.064;3.712;2022-10-16T02:50:54;14.80;99.90
32650;DHT22;19055;51.064;3.712;2022-10-16T02:53:20;14.90;99.90
32650;DHT22;19055;51.064;3.712;2022-10-16T02:55:46;14.90;99.90
32650;DHT22;19055;51.064;3.712;2022-10-16T02:58:11;14.80;99.90
32650;DHT22;19055;51.064;3.712;2022-10-16T03:00:37;14.90;99.90
32650;DHT22;19055;51.064;3.712;2022-10-16T03:03:03;14.80;99.90
32650;DHT22;19055;51.064;3.712;2022-10-16T03:05:28;14.80;99.90
32650;DHT22;19055;51.064;3.712;2022-10-16T03:07:54;14.80;99.90
32650;DHT22;19055;51.064;3.712;2022-10-16T03:10:21;14.80;99.90
32650;DHT22;19055;51.064;3.712;2022-10-16T03:12:46;14.80;99.90
32650;DHT22;19055;51.064;3.712;2022-10-16T03:15:12;14.70;99.90
32650;DHT22;19055;51.064;3.712;2022-10-16T03:17:37;14.70;99.90
32650;DHT22;19055;51.064;3.712;2022-10-16T03:20:03;14.70;99.90
32650;DHT22;19055;51.064;3.712;2022-10-16T03:22:29;14.60;99.90
32650;DHT22;19055;51.064;3.712;2022-10-16T03:24:55;14.70;99.90
32650;DHT22;19055;51.064;3.712;2022-10-16T03:27:20;14.70;99.90
32650;DHT22;19055;51.064;3.712;2022-10-16T03:29:46;14.70;99.90
32650;DHT22;19055;51.064;3.712;2022-10-16T03:32:12;14.70;99.90
32650;DHT22;19055;51.064;3.712;2022-10-16T03:34:38;14.70;99.90
32650;DHT22;19055;51.064;3.712;2022-10-16T03:37:03;14.60;99.90
32650;DHT22;19055;51.064;3.712;2022-10-16T03:39:29;14.60;99.90
32650;DHT22;19055;51.064;3.712;2022-10-16T03:41:54;14.60;99.90
32650;DHT22;19055;51.064;3.712;2022-10-16T03:44:20;14.60;99.90
32650;DHT22;19055;51.064;3.712;2022-10-16T03:46:46;14.60;99.90
32650;DHT22;19055;51.064;3.712;2022-10-16T03:49:12;14.60;99.90
32650;DHT22;19055;51.064;3.712;2022-10-16T03:51:37;14.70;99.90
32650;DHT22;19055;51.064;3.712;2022-10-16T03:54:03;14.60;99.90
32650;DHT22;19055;51.064;3.712;2022-10-16T03:56:29;14.60;99.90
32650;DHT22;19055;51.064;3.712;2022-10-16T03:58:54;14.60;99.90
32650;DHT22;19055;51.064;3.712;2022-10-16T04:01:20;14.60;99.90
32650;DHT22;19055;51.064;3.712;2022-10-16T04:03:46;14.60;99.90
32650;DHT22;19055;51.064;3.712;2022-10-16T04:06:11;14.60;99.90
32650;DHT22;19055;51.064;3.712;2022-10-16T04:08:37;14.50;99.90
32650;DHT22;19055;51.064;3.712;2022-10-16T04:11:04;14.50;99.90
32650;DHT22;19055;51.064;3.712;2022-10-16T04:13:30;14.50;99.90
32650;DHT22;19055;51.064;3.712;2022-10-16T04:15:55;14.50;99.90
32650;DHT22;19055;51.064;3.712;2022-10-16T04:18:21;14.50;99.90
32650;DHT22;19055;51.064;3.712;2022-10-16T04:20:47;14.50;99.90
32650;DHT22;19055;51.064;3.712;2022-10-16T04:23:12;14.50;99.90
32650;DHT22;19055;51.064;3.712;2022-10-16T04:25:38;14.40;99.90
32650;DHT22;19055;51.064;3.712;2022-10-16T04:28:04;14.40;99.90
32650;DHT22;19055;51.064;3.712;2022-10-16T04:30:29;14.50;99.90
32650;DHT22;19055;51.064;3.712;2022-10-16T04:32:55;14.50;99.90
32650;DHT22;19055;51.064;3.712;2022-10-16T04:35:21;14.40;99.90
32650;DHT22;19055;51.064;3.712;2022-10-16T04:37:46;14.50;99.90
32650;DHT22;19055;51.064;3.712;2022-10-16T04:40:12;14.50;99.90
32650;DHT22;19055;51.064;3.712;2022-10-16T04:42:38;14.40;99.90
32650;DHT22;19055;51.064;3.712;2022-10-16T04:45:04;14.30;99.90
32650;DHT22;19055;51.064;3.712;2022-10-16T04:47:30;14.30;99.90
32650;DHT22;19055;51.064;3.712;2022-10-16T04:49:56;14.30;99.90
32650;DHT22;19055;51.064;3.712;2022-10-16T04:52:22;14.30;99.90
32650;DHT22;19055;51.064;3.712;2022-10-16T04:54:50;14.20;99.90
32650;DHT22;19055;51.064;3.712;2022-10-16T04:57:16;14.20;99.90
32650;DHT22;19055;51.064;3.712;2022-10-16T04:59:42;14.30;99.90
32650;DHT22;19055;51.064;3.712;2022-10-16T05:02:07;14.30;99.90
32650;DHT22;19055;51.064;3.712;2022-10-16T05:04:33;14.30;99.90
32650;DHT22;19055;51.064;3.712;2022-10-16T05:06:58;14.30;99.90
32650;DHT22;19055;51.064;3.712;2022-10-16T05:09:24;14.30;99.90
32650;DHT22;19055;51.064;3.712;2022-10-16T05:11:50;14.20;99.90
32650;DHT22;19055;51.064;3.712;2022-10-16T05:14:15;14.30;99.90
32650;DHT22;19055;51.064;3.712;2022-10-16T05:16:41;14.30;99.90
32650;DHT22;19055;51.064;3.712;2022-10-16T05:19:07;14.30;99.90
32650;DHT22;19055;51.064;3.712;2022-10-16T05:21:32;14.40;99.90
32650;DHT22;19055;51.064;3.712;2022-10-16T05:23:58;14.50;99.90
32650;DHT22;19055;51.064;3.712;2022-10-16T05:26:24;14.50;99.90
32650;DHT22;19055;51.064;3.712;2022-10-16T05:28:49;14.60;99.90
32650;DHT22;19055;51.064;3.712;2022-10-16T05:31:15;14.70;99.90
32650;DHT22;19055;51.064;3.712;2022-10-16T05:33:41;14.70;99.90
32650;DHT22;19055;51.064;3.712;2022-10-16T05:36:08;14.70;99.90
32650;DHT22;19055;51.064;3.712;2022-10-16T05:38:34;14.70;99.90
32650;DHT22;19055;51.064;3.712;2022-10-16T05:41:01;14.80;99.90
32650;DHT22;19055;51.064;3.712;2022-10-16T05:43:27;14.80;99.90
32650;DHT22;19055;51.064;3.712;2022-10-16T05:45:54;14.80;99.90
32650;DHT22;19055;51.064;3.712;2022-10-16T05:48:20;14.80;99.90
32650;DHT22;19055;51.064;3.712;2022-10-16T05:50:45;14.80;99.90
32650;DHT22;19055;51.064;3.712;2022-10-16T05:53:11;14.80;99.90
32650;DHT22;19055;51.064;3.712;2022-10-16T05:55:37;14.80;99.90
32650;DHT22;19055;51.064;3.712;2022-10-16T05:58:02;14.70;99.90
32650;DHT22;19055;51.064;3.712;2022-10-16T06:00:28;14.70;99.90
32650;DHT22;19055;51.064;3.712;2022-10-16T06:02:53;14.60;99.90
32650;DHT22;19055;51.064;3.712;2022-10-16T06:05:19;14.50;99.90
32650;DHT22;19055;51.064;3.712;2022-10-16T06:07:45;14.50;99.90
32650;DHT22;19055;51.064;3.712;2022-10-16T06:10:10;14.50;99.90
32650;DHT22;19055;51.064;3.712;2022-10-16T06:12:36;14.50;99.90
32650;DHT22;19055;51.064;3.712;2022-10-16T06:15:02;14.50;99.90
32650;DHT22;19055;51.064;3.712;2022-10-16T06:17:27;14.40;99.90
32650;DHT22;19055;51.064;3.712;2022-10-16T06:19:53;14.40;99.90
32650;DHT22;19055;51.064;3.712;2022-10-16T06:22:19;14.40;99.90
32650;DHT22;19055;51.064;3.712;2022-10-16T06:24:45;14.40;99.90
32650;DHT22;19055;51.064;3.712;2022-10-16T06:27:11;14.30;99.90
32650;DHT22;19055;51.064;3.712;2022-10-16T06:29:37;14.40;99.90
32650;DHT22;19055;51.064;3.712;2022-10-16T06:32:03;14.40;99.90
32650;DHT22;19055;51.064;3.712;2022-10-16T06:34:28;14.40;99.90
32650;DHT22;19055;51.064;3.712;2022-10-16T06:36:54;14.50;99.90
32650;DHT22;19055;51.064;3.712;2022-10-16T06:39:20;14.60;99.90
32650;DHT22;19055;51.064;3.712;2022-10-16T06:41:46;14.60;99.90
32650;DHT22;19055;51.064;3.712;2022-10-16T06:44:14;14.60;99.90
32650;DHT22;19055;51.064;3.712;2022-10-16T06:46:40;14.70;99.90
32650;DHT22;19055;51.064;3.712;2022-10-16T06:49:06;14.70;99.90
32650;DHT22;19055;51.064;3.712;2022-10-16T06:51:31;14.60;99.90
32650;DHT22;19055;51.064;3.712;2022-10-16T06:53:59;14.60;99.90
32650;DHT22;19055;51.064;3.712;2022-10-16T06:56:26;14.70;99.90
32650;DHT22;19055;51.064;3.712;2022-10-16T06:58:52;14.70;99.90
32650;DHT22;19055;51.064;3.712;2022-10-16T07:01:18;14.80;99.90
32650;DHT22;19055;51.064;3.712;2022-10-16T07:03:45;14.80;99.90
32650;DHT22;19055;51.064;3.712;2022-10-16T07:06:12;14.90;99.90
32650;DHT22;19055;51.064;3.712;2022-10-16T07:08:39;14.90;99.90
32650;DHT22;19055;51.064;3.712;2022-10-16T07:11:06;14.90;99.90
32650;DHT22;19055;51.064;3.712;2022-10-16T07:13:35;15.00;99.90
32650;DHT22;19055;51.064;3.712;2022-10-16T07:16:04;15.00;99.90
32650;DHT22;19055;51.064;3.712;2022-10-16T07:18:30;15.10;99.90
32650;DHT22;19055;51.064;3.712;2022-10-16T07:21:07;15.10;99.90
32650;DHT22;19055;51.064;3.712;2022-10-16T07:23:33;15.10;99.90
32650;DHT22;19055;51.064;3.712;2022-10-16T07:25:59;15.10;99.90
32650;DHT22;19055;51.064;3.712;2022-10-16T07:28:25;15.10;99.90
32650;DHT22;19055;51.064;3.712;2022-10-16T07:30:51;15.00;99.90
32650;DHT22;19055;51.064;3.712;2022-10-16T07:33:17;15.00;99.90
32650;DHT22;19055;51.064;3.712;2022-10-16T07:35:52;14.90;99.90
32650;DHT22;19055;51.064;3.712;2022-10-16T07:38:18;15.00;99.90
32650;DHT22;19055;51.064;3.712;2022-10-16T07:40:44;15.00;99.90
32650;DHT22;19055;51.064;3.712;2022-10-16T07:43:09;15.00;99.90
32650;DHT22;19055;51.064;3.712;2022-10-16T07:45:35;15.10;99.90
32650;DHT22;19055;51.064;3.712;2022-10-16T07:48:01;15.10;99.90
32650;DHT22;19055;51.064;3.712;2022-10-16T07:50:26;15.10;99.90
32650;DHT22;19055;51.064;3.712;2022-10-16T07:52:52;15.10;99.90
32650;DHT22;19055;51.064;3.712;2022-10-16T07:55:18;15.20;99.90
32650;DHT22;19055;51.064;3.712;2022-10-16T07:57:47;15.20;99.90
32650;DHT22;19055;51.064;3.712;2022-10-16T08:00:12;15.20;99.90
32650;DHT22;19055;51.064;3.712;2022-10-16T08:02:39;15.20;99.90
32650;DHT22;19055;51.064;3.712;2022-10-16T08:05:05;15.30;99.90
32650;DHT22;19055;51.064;3.712;2022-10-16T08:07:31;15.40;99.90
32650;DHT22;19055;51.064;3.712;2022-10-16T08:09:57;15.40;99.90
32650;DHT22;19055;51.064;3.712;2022-10-16T08:12:24;15.40;99.90
32650;DHT22;19055;51.064;3.712;2022-10-16T08:14:50;15.50;99.90
32650;DHT22;19055;51.064;3.712;2022-10-16T08:17:15;15.60;99.90
32650;DHT22;19055;51.064;3.712;2022-10-16T08:19:50;15.60;99.90
32650;DHT22;19055;51.064;3.712;2022-10-16T08:22:16;15.60;99.90
32650;DHT22;19055;51.064;3.712;2022-10-16T08:24:41;15.70;99.90
32650;DHT22;19055;51.064;3.712;2022-10-16T08:27:07;15.60;99.90
32650;DHT22;19055;51.064;3.712;2022-10-16T08:29:34;15.70;99.90
32650;DHT22;19055;51.064;3.712;2022-10-16T08:32:00;15.70;99.90
32650;DHT22;19055;51.064;3.712;2022-10-16T08:34:25;15.80;99.90
32650;DHT22;19055;51.064;3.712;2022-10-16T08:36:52;15.90;99.90
32650;DHT22;19055;51.064;3.712;2022-10-16T08:39:18;16.00;99.90
32650;DHT22;19055;51.064;3.712;2022-10-16T08:41:57;15.90;99.90
32650;DHT22;19055;51.064;3.712;2022-10-16T08:49:35;16.10;99.90
32650;DHT22;19055;51.064;3.712;2022-10-16T08:52:02;16.40;99.90
32650;DHT22;19055;51.064;3.712;2022-10-16T08:54:29;16.50;99.90
32650;DHT22;19055;51.064;3.712;2022-10-16T08:56:56;16.60;99.90
32650;DHT22;19055;51.064;3.712;2022-10-16T08:59:22;16.70;99.90
32650;DHT22;19055;51.064;3.712;2022-10-16T09:01:49;16.80;99.90
32650;DHT22;19055;51.064;3.712;2022-10-16T09:07:04;16.80;99.90
32650;DHT22;19055;51.064;3.712;2022-10-16T09:19:43;16.80;99.90
32650;DHT22;19055;51.064;3.712;2022-10-16T09:22:12;16.80;99.90
32650;DHT22;19055;51.064;3.712;2022-10-16T09:24:39;16.80;99.90
32650;DHT22;19055;51.064;3.712;2022-10-16T09:27:07;16.90;99.90
32650;DHT22;19055;51.064;3.712;2022-10-16T09:29:33;17.00;99.90
32650;DHT22;19055;51.064;3.712;2022-10-16T09:32:05;17.20;99.90
32650;DHT22;19055;51.064;3.712;2022-10-16T09:34:32;17.50;99.90
32650;DHT22;19055;51.064;3.712;2022-10-16T09:37:00;17.70;99.90
32650;DHT22;19055;51.064;3.712;2022-10-16T09:39:28;17.80;99.90
32650;DHT22;19055;51.064;3.712;2022-10-16T09:41:54;18.00;99.90
32650;DHT22;19055;51.064;3.712;2022-10-16T09:46:49;18.40;99.90
32650;DHT22;19055;51.064;3.712;2022-10-16T09:51:43;18.00;99.90
32650;DHT22;19055;51.064;3.712;2022-10-16T09:56:35;18.20;99.90
32650;DHT22;19055;51.064;3.712;2022-10-16T09:59:11;18.10;99.90
32650;DHT22;19055;51.064;3.712;2022-10-16T10:04:03;18.20;99.90
32650;DHT22;19055;51.064;3.712;2022-10-16T10:06:31;18.30;99.90
32650;DHT22;19055;51.064;3.712;2022-10-16T10:08:58;18.30;99.90
32650;DHT22;19055;51.064;3.712;2022-10-16T10:11:37;18.40;99.90
32650;DHT22;19055;51.064;3.712;2022-10-16T10:14:04;18.70;99.70
32650;DHT22;19055;51.064;3.712;2022-10-16T10:16:30;19.40;98.80
32650;DHT22;19055;51.064;3.712;2022-10-16T10:18:59;20.00;98.00
32650;DHT22;19055;51.064;3.712;2022-10-16T10:21:25;21.00;96.80
32650;DHT22;19055;51.064;3.712;2022-10-16T10:23:57;21.70;94.30
32650;DHT22;19055;51.064;3.712;2022-10-16T10:26:24;21.70;93.50
32650;DHT22;19055;51.064;3.712;2022-10-16T10:36:38;22.20;91.40
32650;DHT22;19055;51.064;3.712;2022-10-16T10:41:44;22.40;90.50
32650;DHT22;19055;51.064;3.712;2022-10-16T10:57:37;22.00;88.10
32650;DHT22;19055;51.064;3.712;2022-10-16T11:07:51;24.70;79.90
32650;DHT22;19055;51.064;3.712;2022-10-16T11:10:20;25.20;78.00
32650;DHT22;19055;51.064;3.712;2022-10-16T11:12:48;25.20;74.60
32650;DHT22;19055;51.064;3.712;2022-10-16T11:17:43;25.70;72.90
32650;DHT22;19055;51.064;3.712;2022-10-16T11:22:39;26.90;66.80
32650;DHT22;19055;51.064;3.712;2022-10-16T11:27:37;26.60;62.50
32650;DHT22;19055;51.064;3.712;2022-10-16T11:30:26;26.00;64.70
32650;DHT22;19055;51.064;3.712;2022-10-16T11:35:27;24.50;66.30
32650;DHT22;19055;51.064;3.712;2022-10-16T11:37:56;24.00;67.80
32650;DHT22;19055;51.064;3.712;2022-10-16T11:40:23;23.80;69.50
32650;DHT22;19055;51.064;3.712;2022-10-16T11:42:51;23.50;70.90
32650;DHT22;19055;51.064;3.712;2022-10-16T11:45:31;23.20;72.00
32650;DHT22;19055;51.064;3.712;2022-10-16T11:55:23;25.00;69.10
32650;DHT22;19055;51.064;3.712;2022-10-16T11:57:52;25.60;67.40
32650;DHT22;19055;51.064;3.712;2022-10-16T12:08:17;25.80;63.60
32650;DHT22;19055;51.064;3.712;2022-10-16T12:10:44;25.80;65.20
32650;DHT22;19055;51.064;3.712;2022-10-16T12:18:30;26.00;62.00
32650;DHT22;19055;51.064;3.712;2022-10-16T12:20:59;26.10;60.10
32650;DHT22;19055;51.064;3.712;2022-10-16T12:23:30;26.10;60.30
32650;DHT22;19055;51.064;3.712;2022-10-16T12:25:57;26.20;59.20
32650;DHT22;19055;51.064;3.712;2022-10-16T12:28:27;26.50;58.00
32650;DHT22;19055;51.064;3.712;2022-10-16T12:31:01;26.20;59.10
32650;DHT22;19055;51.064;3.712;2022-10-16T12:33:34;25.70;57.60
32650;DHT22;19055;51.064;3.712;2022-10-16T12:36:02;25.20;60.00
32650;DHT22;19055;51.064;3.712;2022-10-16T12:41:00;25.10;63.20
32650;DHT22;19055;51.064;3.712;2022-10-16T12:43:27;25.20;61.70
32650;DHT22;19055;51.064;3.712;2022-10-16T12:46:01;24.90;62.90
32650;DHT22;19055;51.064;3.712;2022-10-16T12:48:26;25.00;63.60
32650;DHT22;19055;51.064;3.712;2022-10-16T12:50:53;25.20;61.10
32650;DHT22;19055;51.064;3.712;2022-10-16T12:53:28;25.10;62.70
32650;DHT22;19055;51.064;3.712;2022-10-16T12:56:03;25.10;62.80
32650;DHT22;19055;51.064;3.712;2022-10-16T12:58:36;24.50;64.30
32650;DHT22;19055;51.064;3.712;2022-10-16T13:01:07;24.30;65.20
32650;DHT22;19055;51.064;3.712;2022-10-16T13:03:39;24.20;64.90
32650;DHT22;19055;51.064;3.712;2022-10-16T13:06:27;24.00;66.40
32650;DHT22;19055;51.064;3.712;2022-10-16T13:09:02;24.10;66.90
32650;DHT22;19055;51.064;3.712;2022-10-16T13:14:27;24.70;63.80
32650;DHT22;19055;51.064;3.712;2022-10-16T13:17:04;24.90;62.20
32650;DHT22;19055;51.064;3.712;2022-10-16T13:27:09;23.50;66.30
32650;DHT22;19055;51.064;3.712;2022-10-16T13:29:37;23.20;67.30
32650;DHT22;19055;51.064;3.712;2022-10-16T13:32:07;22.90;68.40
32650;DHT22;19055;51.064;3.712;2022-10-16T13:34:41;22.80;69.00
32650;DHT22;19055;51.064;3.712;2022-10-16T13:37:15;23.00;69.00
32650;DHT22;19055;51.064;3.712;2022-10-16T13:39:41;23.00;68.50
32650;DHT22;19055;51.064;3.712;2022-10-16T13:44:47;22.90;69.90
32650;DHT22;19055;51.064;3.712;2022-10-16T13:47:18;22.90;69.70
32650;DHT22;19055;51.064;3.712;2022-10-16T13:49:44;23.00;69.50
32650;DHT22;19055;51.064;3.712;2022-10-16T13:52:19;22.60;69.90
32650;DHT22;19055;51.064;3.712;2022-10-16T13:54:45;22.20;71.60
32650;DHT22;19055;51.064;3.712;2022-10-16T13:57:15;22.20;72.20
32650;DHT22;19055;51.064;3.712;2022-10-16T13:59:40;22.10;72.80
32650;DHT22;19055;51.064;3.712;2022-10-16T14:04:51;21.50;75.10
32650;DHT22;19055;51.064;3.712;2022-10-16T14:07:25;21.40;75.30
32650;DHT22;19055;51.064;3.712;2022-10-16T14:09:52;21.60;74.20
32650;DHT22;19055;51.064;3.712;2022-10-16T14:12:18;21.60;74.20
32650;DHT22;19055;51.064;3.712;2022-10-16T14:14:44;21.70;73.90
32650;DHT22;19055;51.064;3.712;2022-10-16T14:17:14;21.60;74.70
32650;DHT22;19055;51.064;3.712;2022-10-16T14:19:39;21.80;75.00
32650;DHT22;19055;51.064;3.712;2022-10-16T14:22:11;21.50;76.00
32650;DHT22;19055;51.064;3.712;2022-10-16T14:24:43;21.10;78.10
32650;DHT22;19055;51.064;3.712;2022-10-16T14:27:32;20.40;80.60
32650;DHT22;19055;51.064;3.712;2022-10-16T14:32:32;20.20;82.40
32650;DHT22;19055;51.064;3.712;2022-10-16T14:34:58;20.50;81.60
32650;DHT22;19055;51.064;3.712;2022-10-16T14:37:25;20.60;80.10
32650;DHT22;19055;51.064;3.712;2022-10-16T14:39:51;20.80;80.10
32650;DHT22;19055;51.064;3.712;2022-10-16T14:42:18;20.90;79.40
32650;DHT22;19055;51.064;3.712;2022-10-16T14:44:45;20.90;79.00
32650;DHT22;19055;51.064;3.712;2022-10-16T14:47:16;20.80;79.20
32650;DHT22;19055;51.064;3.712;2022-10-16T14:49:42;20.70;79.00
32650;DHT22;19055;51.064;3.712;2022-10-16T14:52:08;20.60;77.60
32650;DHT22;19055;51.064;3.712;2022-10-16T14:54:35;20.30;78.20
32650;DHT22;19055;51.064;3.712;2022-10-16T14:57:03;20.40;78.70
32650;DHT22;19055;51.064;3.712;2022-10-16T15:01:58;20.00;78.60
32650;DHT22;19055;51.064;3.712;2022-10-16T15:04:23;20.10;79.10
32650;DHT22;19055;51.064;3.712;2022-10-16T15:06:49;20.20;79.00
32650;DHT22;19055;51.064;3.712;2022-10-16T15:09:15;20.10;79.60
32650;DHT22;19055;51.064;3.712;2022-10-16T15:11:41;20.20;79.60
32650;DHT22;19055;51.064;3.712;2022-10-16T15:14:08;20.30;79.30
32650;DHT22;19055;51.064;3.712;2022-10-16T15:16:34;20.20;79.80
32650;DHT22;19055;51.064;3.712;2022-10-16T15:19:00;20.20;79.90
32650;DHT22;19055;51.064;3.712;2022-10-16T15:21:30;20.30;79.70
32650;DHT22;19055;51.064;3.712;2022-10-16T15:23:56;20.40;79.40
32650;DHT22;19055;51.064;3.712;2022-10-16T15:26:22;20.40;79.30
32650;DHT22;19055;51.064;3.712;2022-10-16T15:28:48;20.30;80.30
32650;DHT22;19055;51.064;3.712;2022-10-16T15:31:14;20.10;81.30
32650;DHT22;19055;51.064;3.712;2022-10-16T15:33:39;20.00;81.70
32650;DHT22;19055;51.064;3.712;2022-10-16T15:36:05;20.00;82.00
32650;DHT22;19055;51.064;3.712;2022-10-16T15:38:31;19.90;82.70
32650;DHT22;19055;51.064;3.712;2022-10-16T15:40:57;19.80;83.10
32650;DHT22;19055;51.064;3.712;2022-10-16T15:43:22;19.80;83.20
32650;DHT22;19055;51.064;3.712;2022-10-16T15:46:02;19.90;83.20
32650;DHT22;19055;51.064;3.712;2022-10-16T15:48:31;19.70;83.70
32650;DHT22;19055;51.064;3.712;2022-10-16T15:50:57;19.40;84.70
32650;DHT22;19055;51.064;3.712;2022-10-16T15:53:23;19.30;85.10
32650;DHT22;19055;51.064;3.712;2022-10-16T15:55:49;19.30;85.60
32650;DHT22;19055;51.064;3.712;2022-10-16T15:58:14;19.20;85.90
32650;DHT22;19055;51.064;3.712;2022-10-16T16:00:40;19.10;86.50
32650;DHT22;19055;51.064;3.712;2022-10-16T16:03:06;19.10;86.60
32650;DHT22;19055;51.064;3.712;2022-10-16T16:05:31;19.20;86.40
32650;DHT22;19055;51.064;3.712;2022-10-16T16:07:58;19.10;86.40
32650;DHT22;19055;51.064;3.712;2022-10-16T16:10:27;19.10;86.90
32650;DHT22;19055;51.064;3.712;2022-10-16T16:12:52;19.00;87.30
32650;DHT22;19055;51.064;3.712;2022-10-16T16:15:19;19.00;87.70
32650;DHT22;19055;51.064;3.712;2022-10-16T16:17:45;19.00;87.90
32650;DHT22;19055;51.064;3.712;2022-10-16T16:20:11;18.90;88.20
32650;DHT22;19055;51.064;3.712;2022-10-16T16:22:36;18.80;89.50
32650;DHT22;19055;51.064;3.712;2022-10-16T16:25:05;18.90;88.80
32650;DHT22;19055;51.064;3.712;2022-10-16T16:27:31;18.80;89.10
32650;DHT22;19055;51.064;3.712;2022-10-16T16:29:59;18.80;89.60
32650;DHT22;19055;51.064;3.712;2022-10-16T16:32:24;18.60;90.30
32650;DHT22;19055;51.064;3.712;2022-10-16T16:34:50;18.60;90.30
32650;DHT22;19055;51.064;3.712;2022-10-16T16:37:16;18.70;90.30
32650;DHT22;19055;51.064;3.712;2022-10-16T16:39:42;18.80;90.40
32650;DHT22;19055;51.064;3.712;2022-10-16T16:42:07;18.70;90.40
32650;DHT22;19055;51.064;3.712;2022-10-16T16:44:33;18.60;90.80
32650;DHT22;19055;51.064;3.712;2022-10-16T16:47:01;18.50;90.90
32650;DHT22;19055;51.064;3.712;2022-10-16T16:49:27;18.60;91.00
32650;DHT22;19055;51.064;3.712;2022-10-16T16:51:53;18.60;91.00
32650;DHT22;19055;51.064;3.712;2022-10-16T16:54:19;18.60;91.10
32650;DHT22;19055;51.064;3.712;2022-10-16T16:56:45;18.60;90.90
32650;DHT22;19055;51.064;3.712;2022-10-16T16:59:12;18.70;90.90
32650;DHT22;19055;51.064;3.712;2022-10-16T17:01:37;18.80;90.80
32650;DHT22;19055;51.064;3.712;2022-10-16T17:04:03;18.90;90.70
32650;DHT22;19055;51.064;3.712;2022-10-16T17:06:30;18.90;90.60
32650;DHT22;19055;51.064;3.712;2022-10-16T17:08:56;19.00;90.60
32650;DHT22;19055;51.064;3.712;2022-10-16T17:11:22;18.90;90.80
32650;DHT22;19055;51.064;3.712;2022-10-16T17:13:49;18.80;91.00
32650;DHT22;19055;51.064;3.712;2022-10-16T17:16:15;18.80;91.20
32650;DHT22;19055;51.064;3.712;2022-10-16T17:18:41;18.80;91.10
32650;DHT22;19055;51.064;3.712;2022-10-16T17:21:08;18.80;91.40
32650;DHT22;19055;51.064;3.712;2022-10-16T17:23:35;18.60;91.80
32650;DHT22;19055;51.064;3.712;2022-10-16T17:28:30;18.50;92.50
32650;DHT22;19055;51.064;3.712;2022-10-16T17:30:55;18.40;92.50
32650;DHT22;19055;51.064;3.712;2022-10-16T17:33:21;18.30;92.80
32650;DHT22;19055;51.064;3.712;2022-10-16T17:35:47;18.30;93.00
32650;DHT22;19055;51.064;3.712;2022-10-16T17:38:13;18.30;93.20